sensor_id;sensor_type;location;lat;lon;timestamp;P1;durP1;ratioP1;P2;durP2;ratioP2
76284;SDS011;65096;50.998;7.098;2023-04-03T00:01:05;5.85;;;3.00;;
76284;SDS011;65096;50.998;7.098;2023-04-03T00:03:34;6.72;;;3.00;;
76284;SDS011;65096;50.998;7.098;2023-04-03T00:06:01;7.20;;;3.33;;
76284;SDS011;65096;50.998;7.098;2023-04-03T00:08:28;5.05;;;2.67;;
76284;SDS011;65096;50.998;7.098;2023-04-03T00:10:55;6.45;;;3.15;;
76284;SDS011;65096;50.998;7.098;2023-04-03T00:13:22;7.05;;;2.80;;
76284;SDS011;65096;50.998;7.098;2023-04-03T00:15:50;7.85;;;3.20;;
76284;SDS011;65096;50.998;7.098;2023-04-03T00:18:16;7.50;;;2.90;;
76284;SDS011;65096;50.998;7.098;2023-04-03T00:20:44;6.03;;;2.50;;
76284;SDS011;65096;50.998;7.098;2023-04-03T00:23:11;7.30;;;3.42;;
76284;SDS011;65096;50.998;7.098;2023-04-03T00:25:38;5.55;;;3.05;;
76284;SDS011;65096;50.998;7.098;2023-04-03T00:28:05;7.45;;;3.35;;
76284;SDS011;65096;50.998;7.098;2023-04-03T00:33:07;5.95;;;2.65;;
76284;SDS011;65096;50.998;7.098;2023-04-03T00:35:34;6.05;;;2.88;;
76284;SDS011;65096;50.998;7.098;2023-04-03T00:38:02;6.47;;;2.97;;
76284;SDS011;65096;50.998;7.098;2023-04-03T00:40:33;6.93;;;3.08;;
76284;SDS011;65096;50.998;7.098;2023-04-03T00:43:01;5.78;;;2.92;;
76284;SDS011;65096;50.998;7.098;2023-04-03T00:45:35;6.50;;;3.22;;
76284;SDS011;65096;50.998;7.098;2023-04-03T00:48:04;5.20;;;2.70;;
76284;SDS011;65096;50.998;7.098;2023-04-03T00:50:33;5.75;;;3.03;;
76284;SDS011;65096;50.998;7.098;2023-04-03T00:53:02;6.60;;;3.25;;
76284;SDS011;65096;50.998;7.098;2023-04-03T00:55:31;7.00;;;3.17;;
76284;SDS011;65096;50.998;7.098;2023-04-03T00:57:58;5.70;;;2.83;;
76284;SDS011;65096;50.998;7.098;2023-04-03T01:00:27;8.07;;;3.25;;
76284;SDS011;65096;50.998;7.098;2023-04-03T01:02:54;6.13;;;2.88;;
76284;SDS011;65096;50.998;7.098;2023-04-03T01:05:21;7.68;;;3.33;;
76284;SDS011;65096;50.998;7.098;2023-04-03T01:07:48;7.13;;;3.40;;
76284;SDS011;65096;50.998;7.098;2023-04-03T01:10:19;5.57;;;2.92;;
76284;SDS011;65096;50.998;7.098;2023-04-03T01:12:46;7.43;;;3.50;;
76284;SDS011;65096;50.998;7.098;2023-04-03T01:15:15;6.68;;;3.20;;
76284;SDS011;65096;50.998;7.098;2023-04-03T01:17:44;6.65;;;3.22;;
76284;SDS011;65096;50.998;7.098;2023-04-03T01:20:22;5.90;;;2.90;;
76284;SDS011;65096;50.998;7.098;2023-04-03T01:23:21;6.78;;;3.17;;
76284;SDS011;65096;50.998;7.098;2023-04-03T01:25:55;6.70;;;2.90;;
76284;SDS011;65096;50.998;7.098;2023-04-03T01:28:23;5.43;;;3.05;;
76284;SDS011;65096;50.998;7.098;2023-04-03T01:30:53;6.35;;;3.22;;
76284;SDS011;65096;50.998;7.098;2023-04-03T01:33:29;6.03;;;2.80;;
76284;SDS011;65096;50.998;7.098;2023-04-03T01:35:56;7.00;;;3.33;;
76284;SDS011;65096;50.998;7.098;2023-04-03T01:38:22;7.28;;;3.10;;
76284;SDS011;65096;50.998;7.098;2023-04-03T01:40:50;5.65;;;3.05;;
76284;SDS011;65096;50.998;7.098;2023-04-03T01:43:17;7.97;;;3.28;;
76284;SDS011;65096;50.998;7.098;2023-04-03T01:45:43;7.15;;;3.17;;
76284;SDS011;65096;50.998;7.098;2023-04-03T01:48:11;7.32;;;3.22;;
76284;SDS011;65096;50.998;7.098;2023-04-03T01:50:39;5.63;;;3.20;;
76284;SDS011;65096;50.998;7.098;2023-04-03T01:53:06;6.15;;;3.20;;
76284;SDS011;65096;50.998;7.098;2023-04-03T01:55:33;6.82;;;3.40;;
76284;SDS011;65096;50.998;7.098;2023-04-03T01:57:59;5.32;;;3.00;;
76284;SDS011;65096;50.998;7.098;2023-04-03T02:00:26;6.72;;;2.97;;
76284;SDS011;65096;50.998;7.098;2023-04-03T02:02:53;7.85;;;3.58;;
76284;SDS011;65096;50.998;7.098;2023-04-03T02:05:20;7.70;;;3.25;;
76284;SDS011;65096;50.998;7.098;2023-04-03T02:07:48;5.68;;;3.08;;
76284;SDS011;65096;50.998;7.098;2023-04-03T02:10:15;6.03;;;3.13;;
76284;SDS011;65096;50.998;7.098;2023-04-03T02:12:41;8.35;;;3.33;;
76284;SDS011;65096;50.998;7.098;2023-04-03T02:15:08;6.38;;;3.45;;
76284;SDS011;65096;50.998;7.098;2023-04-03T02:17:36;7.70;;;3.40;;
76284;SDS011;65096;50.998;7.098;2023-04-03T02:20:03;6.82;;;3.22;;
76284;SDS011;65096;50.998;7.098;2023-04-03T02:22:30;6.65;;;3.22;;
76284;SDS011;65096;50.998;7.098;2023-04-03T02:24:58;5.95;;;3.28;;
76284;SDS011;65096;50.998;7.098;2023-04-03T02:27:25;4.95;;;2.88;;
76284;SDS011;65096;50.998;7.098;2023-04-03T02:29:52;6.43;;;3.13;;
76284;SDS011;65096;50.998;7.098;2023-04-03T02:32:19;6.43;;;3.22;;
76284;SDS011;65096;50.998;7.098;2023-04-03T02:34:46;7.80;;;3.28;;
76284;SDS011;65096;50.998;7.098;2023-04-03T02:37:12;5.20;;;3.08;;
76284;SDS011;65096;50.998;7.098;2023-04-03T02:39:42;7.85;;;3.47;;
76284;SDS011;65096;50.998;7.098;2023-04-03T02:42:10;5.85;;;3.05;;
76284;SDS011;65096;50.998;7.098;2023-04-03T02:44:36;6.35;;;3.00;;
76284;SDS011;65096;50.998;7.098;2023-04-03T02:47:04;7.80;;;3.40;;
76284;SDS011;65096;50.998;7.098;2023-04-03T02:49:31;7.82;;;3.35;;
76284;SDS011;65096;50.998;7.098;2023-04-03T02:51:57;6.13;;;3.33;;
76284;SDS011;65096;50.998;7.098;2023-04-03T02:54:24;6.75;;;3.28;;
76284;SDS011;65096;50.998;7.098;2023-04-03T02:56:53;7.85;;;3.92;;
76284;SDS011;65096;50.998;7.098;2023-04-03T02:59:21;7.63;;;3.13;;
76284;SDS011;65096;50.998;7.098;2023-04-03T03:01:48;5.68;;;2.72;;
76284;SDS011;65096;50.998;7.098;2023-04-03T03:04:15;6.85;;;3.55;;
76284;SDS011;65096;50.998;7.098;2023-04-03T03:06:41;6.90;;;3.40;;
76284;SDS011;65096;50.998;7.098;2023-04-03T03:09:08;7.07;;;3.40;;
76284;SDS011;65096;50.998;7.098;2023-04-03T03:11:35;12.48;;;4.13;;
76284;SDS011;65096;50.998;7.098;2023-04-03T03:14:01;6.10;;;3.00;;
76284;SDS011;65096;50.998;7.098;2023-04-03T03:16:29;6.28;;;2.95;;
76284;SDS011;65096;50.998;7.098;2023-04-03T03:18:56;5.65;;;3.05;;
76284;SDS011;65096;50.998;7.098;2023-04-03T03:21:23;5.22;;;2.88;;
76284;SDS011;65096;50.998;7.098;2023-04-03T03:23:49;6.18;;;3.03;;
76284;SDS011;65096;50.998;7.098;2023-04-03T03:26:16;5.80;;;3.05;;
76284;SDS011;65096;50.998;7.098;2023-04-03T03:28:43;7.35;;;2.97;;
76284;SDS011;65096;50.998;7.098;2023-04-03T03:31:09;6.50;;;2.90;;
76284;SDS011;65096;50.998;7.098;2023-04-03T03:33:38;8.73;;;3.10;;
76284;SDS011;65096;50.998;7.098;2023-04-03T03:36:05;9.25;;;4.00;;
76284;SDS011;65096;50.998;7.098;2023-04-03T03:38:32;6.30;;;2.90;;
76284;SDS011;65096;50.998;7.098;2023-04-03T03:40:59;6.95;;;2.75;;
76284;SDS011;65096;50.998;7.098;2023-04-03T03:43:27;5.88;;;2.97;;
76284;SDS011;65096;50.998;7.098;2023-04-03T03:45:54;7.28;;;2.88;;
76284;SDS011;65096;50.998;7.098;2023-04-03T03:48:21;8.18;;;2.95;;
76284;SDS011;65096;50.998;7.098;2023-04-03T03:50:49;7.20;;;3.58;;
76284;SDS011;65096;50.998;7.098;2023-04-03T03:53:16;6.60;;;2.78;;
76284;SDS011;65096;50.998;7.098;2023-04-03T03:55:44;7.82;;;3.10;;
76284;SDS011;65096;50.998;7.098;2023-04-03T03:58:10;6.65;;;3.17;;
76284;SDS011;65096;50.998;7.098;2023-04-03T04:00:37;6.90;;;2.53;;
76284;SDS011;65096;50.998;7.098;2023-04-03T04:03:04;5.50;;;2.55;;
76284;SDS011;65096;50.998;7.098;2023-04-03T04:05:31;6.97;;;3.13;;
76284;SDS011;65096;50.998;7.098;2023-04-03T04:07:59;5.25;;;2.35;;
76284;SDS011;65096;50.998;7.098;2023-04-03T04:10:25;7.07;;;2.60;;
76284;SDS011;65096;50.998;7.098;2023-04-03T04:12:52;6.70;;;2.63;;
76284;SDS011;65096;50.998;7.098;2023-04-03T04:15:19;5.85;;;2.33;;
76284;SDS011;65096;50.998;7.098;2023-04-03T04:17:46;5.90;;;2.33;;
76284;SDS011;65096;50.998;7.098;2023-04-03T04:20:13;5.35;;;2.25;;
76284;SDS011;65096;50.998;7.098;2023-04-03T04:22:40;5.32;;;2.50;;
76284;SDS011;65096;50.998;7.098;2023-04-03T04:25:08;5.82;;;2.67;;
76284;SDS011;65096;50.998;7.098;2023-04-03T04:27:35;7.22;;;2.85;;
76284;SDS011;65096;50.998;7.098;2023-04-03T04:30:02;8.77;;;3.15;;
76284;SDS011;65096;50.998;7.098;2023-04-03T04:32:29;7.40;;;2.85;;
76284;SDS011;65096;50.998;7.098;2023-04-03T04:34:56;6.10;;;3.03;;
76284;SDS011;65096;50.998;7.098;2023-04-03T04:37:24;6.22;;;2.78;;
76284;SDS011;65096;50.998;7.098;2023-04-03T04:39:51;6.72;;;3.08;;
76284;SDS011;65096;50.998;7.098;2023-04-03T04:42:19;11.43;;;4.63;;
76284;SDS011;65096;50.998;7.098;2023-04-03T04:44:45;11.40;;;4.82;;
76284;SDS011;65096;50.998;7.098;2023-04-03T04:47:12;10.10;;;4.40;;
76284;SDS011;65096;50.998;7.098;2023-04-03T04:49:39;8.93;;;2.90;;
76284;SDS011;65096;50.998;7.098;2023-04-03T04:52:06;5.38;;;2.60;;
76284;SDS011;65096;50.998;7.098;2023-04-03T04:54:33;5.78;;;2.22;;
76284;SDS011;65096;50.998;7.098;2023-04-03T04:57:01;5.78;;;2.60;;
76284;SDS011;65096;50.998;7.098;2023-04-03T04:59:29;5.13;;;2.40;;
76284;SDS011;65096;50.998;7.098;2023-04-03T05:01:56;5.95;;;2.03;;
76284;SDS011;65096;50.998;7.098;2023-04-03T05:04:23;7.32;;;2.47;;
76284;SDS011;65096;50.998;7.098;2023-04-03T05:06:50;6.63;;;2.22;;
76284;SDS011;65096;50.998;7.098;2023-04-03T05:09:16;5.65;;;2.47;;
76284;SDS011;65096;50.998;7.098;2023-04-03T05:11:45;9.05;;;2.20;;
76284;SDS011;65096;50.998;7.098;2023-04-03T05:14:11;4.25;;;2.35;;
76284;SDS011;65096;50.998;7.098;2023-04-03T05:16:39;4.63;;;2.00;;
76284;SDS011;65096;50.998;7.098;2023-04-03T05:19:06;4.72;;;2.00;;
76284;SDS011;65096;50.998;7.098;2023-04-03T05:21:33;5.38;;;2.05;;
76284;SDS011;65096;50.998;7.098;2023-04-03T05:24:00;6.15;;;2.70;;
76284;SDS011;65096;50.998;7.098;2023-04-03T05:26:27;7.65;;;2.60;;
76284;SDS011;65096;50.998;7.098;2023-04-03T05:28:55;5.50;;;2.63;;
76284;SDS011;65096;50.998;7.098;2023-04-03T05:31:21;8.05;;;3.00;;
76284;SDS011;65096;50.998;7.098;2023-04-03T05:33:49;8.15;;;3.38;;
76284;SDS011;65096;50.998;7.098;2023-04-03T05:36:16;7.80;;;3.33;;
76284;SDS011;65096;50.998;7.098;2023-04-03T05:38:43;8.73;;;3.00;;
76284;SDS011;65096;50.998;7.098;2023-04-03T05:41:10;9.70;;;3.70;;
76284;SDS011;65096;50.998;7.098;2023-04-03T05:43:37;8.32;;;3.67;;
76284;SDS011;65096;50.998;7.098;2023-04-03T05:46:04;9.48;;;4.28;;
76284;SDS011;65096;50.998;7.098;2023-04-03T05:48:33;9.90;;;4.13;;
76284;SDS011;65096;50.998;7.098;2023-04-03T05:51:01;11.57;;;5.05;;
76284;SDS011;65096;50.998;7.098;2023-04-03T05:53:28;8.55;;;4.45;;
76284;SDS011;65096;50.998;7.098;2023-04-03T05:55:57;7.13;;;3.67;;
76284;SDS011;65096;50.998;7.098;2023-04-03T05:58:24;8.88;;;3.50;;
76284;SDS011;65096;50.998;7.098;2023-04-03T06:00:51;9.73;;;3.10;;
76284;SDS011;65096;50.998;7.098;2023-04-03T06:03:17;4.90;;;2.08;;
76284;SDS011;65096;50.998;7.098;2023-04-03T06:05:44;5.25;;;2.10;;
76284;SDS011;65096;50.998;7.098;2023-04-03T06:08:12;6.40;;;2.30;;
76284;SDS011;65096;50.998;7.098;2023-04-03T06:10:39;5.93;;;2.10;;
76284;SDS011;65096;50.998;7.098;2023-04-03T06:13:06;6.00;;;1.90;;
76284;SDS011;65096;50.998;7.098;2023-04-03T06:15:33;6.82;;;2.30;;
76284;SDS011;65096;50.998;7.098;2023-04-03T06:17:59;5.47;;;2.10;;
76284;SDS011;65096;50.998;7.098;2023-04-03T06:20:26;5.22;;;2.00;;
76284;SDS011;65096;50.998;7.098;2023-04-03T06:22:53;4.88;;;2.00;;
76284;SDS011;65096;50.998;7.098;2023-04-03T06:25:21;6.30;;;1.83;;
76284;SDS011;65096;50.998;7.098;2023-04-03T06:27:48;6.57;;;1.60;;
76284;SDS011;65096;50.998;7.098;2023-04-03T06:30:14;3.40;;;1.83;;
76284;SDS011;65096;50.998;7.098;2023-04-03T06:32:41;4.00;;;1.90;;
76284;SDS011;65096;50.998;7.098;2023-04-03T06:35:08;7.65;;;2.03;;
76284;SDS011;65096;50.998;7.098;2023-04-03T06:37:35;5.00;;;2.13;;
76284;SDS011;65096;50.998;7.098;2023-04-03T06:40:02;6.28;;;1.80;;
76284;SDS011;65096;50.998;7.098;2023-04-03T06:42:31;5.18;;;1.83;;
76284;SDS011;65096;50.998;7.098;2023-04-03T06:44:58;3.00;;;1.58;;
76284;SDS011;65096;50.998;7.098;2023-04-03T06:47:25;5.43;;;1.92;;
76284;SDS011;65096;50.998;7.098;2023-04-03T06:49:52;4.57;;;1.95;;
76284;SDS011;65096;50.998;7.098;2023-04-03T06:52:18;6.75;;;2.15;;
76284;SDS011;65096;50.998;7.098;2023-04-03T06:54:45;5.28;;;1.83;;
76284;SDS011;65096;50.998;7.098;2023-04-03T06:57:12;5.82;;;2.25;;
76284;SDS011;65096;50.998;7.098;2023-04-03T06:59:41;6.10;;;1.88;;
76284;SDS011;65096;50.998;7.098;2023-04-03T07:02:09;6.45;;;2.38;;
76284;SDS011;65096;50.998;7.098;2023-04-03T07:04:37;5.78;;;2.15;;
76284;SDS011;65096;50.998;7.098;2023-04-03T07:07:04;5.72;;;1.90;;
76284;SDS011;65096;50.998;7.098;2023-04-03T07:09:31;6.32;;;1.75;;
76284;SDS011;65096;50.998;7.098;2023-04-03T07:11:57;6.63;;;1.73;;
76284;SDS011;65096;50.998;7.098;2023-04-03T07:14:24;3.88;;;1.50;;
76284;SDS011;65096;50.998;7.098;2023-04-03T07:16:52;6.03;;;1.83;;
76284;SDS011;65096;50.998;7.098;2023-04-03T07:19:19;4.53;;;1.67;;
76284;SDS011;65096;50.998;7.098;2023-04-03T07:21:46;5.20;;;1.65;;
76284;SDS011;65096;50.998;7.098;2023-04-03T07:24:13;4.72;;;1.48;;
76284;SDS011;65096;50.998;7.098;2023-04-03T07:26:39;5.90;;;1.80;;
76284;SDS011;65096;50.998;7.098;2023-04-03T07:29:06;4.97;;;1.50;;
76284;SDS011;65096;50.998;7.098;2023-04-03T07:31:34;5.10;;;1.60;;
76284;SDS011;65096;50.998;7.098;2023-04-03T07:34:02;6.30;;;1.95;;
76284;SDS011;65096;50.998;7.098;2023-04-03T07:36:29;6.38;;;1.52;;
76284;SDS011;65096;50.998;7.098;2023-04-03T07:38:58;3.72;;;1.48;;
76284;SDS011;65096;50.998;7.098;2023-04-03T07:41:25;4.57;;;1.45;;
76284;SDS011;65096;50.998;7.098;2023-04-03T07:43:51;6.32;;;1.50;;
76284;SDS011;65096;50.998;7.098;2023-04-03T07:46:18;3.50;;;1.33;;
76284;SDS011;65096;50.998;7.098;2023-04-03T07:48:45;6.22;;;1.65;;
76284;SDS011;65096;50.998;7.098;2023-04-03T07:51:14;4.25;;;1.33;;
76284;SDS011;65096;50.998;7.098;2023-04-03T07:53:41;4.40;;;1.70;;
76284;SDS011;65096;50.998;7.098;2023-04-03T07:56:11;4.40;;;1.55;;
76284;SDS011;65096;50.998;7.098;2023-04-03T07:58:37;3.83;;;1.52;;
76284;SDS011;65096;50.998;7.098;2023-04-03T08:01:05;6.63;;;2.28;;
76284;SDS011;65096;50.998;7.098;2023-04-03T08:03:32;5.82;;;1.45;;
76284;SDS011;65096;50.998;7.098;2023-04-03T08:06:01;5.65;;;1.70;;
76284;SDS011;65096;50.998;7.098;2023-04-03T08:08:31;5.75;;;1.42;;
76284;SDS011;65096;50.998;7.098;2023-04-03T08:10:58;6.63;;;1.30;;
76284;SDS011;65096;50.998;7.098;2023-04-03T08:13:27;5.38;;;1.70;;
76284;SDS011;65096;50.998;7.098;2023-04-03T08:15:53;5.65;;;1.42;;
76284;SDS011;65096;50.998;7.098;2023-04-03T08:18:22;3.35;;;1.33;;
76284;SDS011;65096;50.998;7.098;2023-04-03T08:20:49;3.15;;;1.27;;
76284;SDS011;65096;50.998;7.098;2023-04-03T08:23:16;5.70;;;1.40;;
76284;SDS011;65096;50.998;7.098;2023-04-03T08:25:44;4.10;;;1.13;;
76284;SDS011;65096;50.998;7.098;2023-04-03T08:28:11;3.03;;;1.23;;
76284;SDS011;65096;50.998;7.098;2023-04-03T08:30:38;4.10;;;1.48;;
76284;SDS011;65096;50.998;7.098;2023-04-03T08:33:07;4.78;;;1.50;;
76284;SDS011;65096;50.998;7.098;2023-04-03T08:35:37;3.72;;;1.33;;
76284;SDS011;65096;50.998;7.098;2023-04-03T08:38:05;4.70;;;1.25;;
76284;SDS011;65096;50.998;7.098;2023-04-03T08:40:32;3.65;;;1.35;;
76284;SDS011;65096;50.998;7.098;2023-04-03T08:43:03;4.55;;;1.50;;
76284;SDS011;65096;50.998;7.098;2023-04-03T08:45:45;4.05;;;2.03;;
76284;SDS011;65096;50.998;7.098;2023-04-03T08:48:17;3.17;;;1.13;;
76284;SDS011;65096;50.998;7.098;2023-04-03T08:50:47;3.08;;;1.20;;
76284;SDS011;65096;50.998;7.098;2023-04-03T08:53:17;4.57;;;1.08;;
76284;SDS011;65096;50.998;7.098;2023-04-03T08:55:47;4.60;;;1.00;;
76284;SDS011;65096;50.998;7.098;2023-04-03T08:58:18;3.58;;;1.00;;
76284;SDS011;65096;50.998;7.098;2023-04-03T09:00:47;4.22;;;1.20;;
76284;SDS011;65096;50.998;7.098;2023-04-03T09:03:16;5.00;;;1.10;;
76284;SDS011;65096;50.998;7.098;2023-04-03T09:05:46;2.30;;;1.15;;
76284;SDS011;65096;50.998;7.098;2023-04-03T09:08:19;2.55;;;1.08;;
76284;SDS011;65096;50.998;7.098;2023-04-03T09:10:52;5.15;;;1.50;;
76284;SDS011;65096;50.998;7.098;2023-04-03T09:13:29;3.75;;;1.02;;
76284;SDS011;65096;50.998;7.098;2023-04-03T09:16:12;3.58;;;1.05;;
76284;SDS011;65096;50.998;7.098;2023-04-03T09:18:48;3.45;;;1.33;;
76284;SDS011;65096;50.998;7.098;2023-04-03T09:21:23;4.75;;;1.30;;
76284;SDS011;65096;50.998;7.098;2023-04-03T09:23:57;4.50;;;1.40;;
76284;SDS011;65096;50.998;7.098;2023-04-03T09:26:28;2.33;;;1.10;;
76284;SDS011;65096;50.998;7.098;2023-04-03T09:29:02;3.58;;;1.20;;
76284;SDS011;65096;50.998;7.098;2023-04-03T09:34:04;3.83;;;1.08;;
76284;SDS011;65096;50.998;7.098;2023-04-03T09:36:37;4.75;;;1.42;;
76284;SDS011;65096;50.998;7.098;2023-04-03T09:39:07;3.63;;;1.10;;
76284;SDS011;65096;50.998;7.098;2023-04-03T09:41:37;6.50;;;1.70;;
76284;SDS011;65096;50.998;7.098;2023-04-03T09:44:17;4.78;;;1.48;;
76284;SDS011;65096;50.998;7.098;2023-04-03T09:46:47;5.88;;;1.30;;
76284;SDS011;65096;50.998;7.098;2023-04-03T09:49:14;1.77;;;0.93;;
76284;SDS011;65096;50.998;7.098;2023-04-03T09:51:41;3.83;;;1.40;;
76284;SDS011;65096;50.998;7.098;2023-04-03T09:54:26;4.80;;;1.20;;
76284;SDS011;65096;50.998;7.098;2023-04-03T09:57:06;3.90;;;1.20;;
76284;SDS011;65096;50.998;7.098;2023-04-03T09:59:39;4.82;;;1.40;;
76284;SDS011;65096;50.998;7.098;2023-04-03T10:02:21;2.25;;;1.00;;
76284;SDS011;65096;50.998;7.098;2023-04-03T10:04:55;2.95;;;1.30;;
76284;SDS011;65096;50.998;7.098;2023-04-03T10:07:25;4.38;;;1.40;;
76284;SDS011;65096;50.998;7.098;2023-04-03T10:09:55;5.63;;;1.42;;
76284;SDS011;65096;50.998;7.098;2023-04-03T10:12:22;3.97;;;1.42;;
76284;SDS011;65096;50.998;7.098;2023-04-03T10:14:55;4.63;;;1.40;;
76284;SDS011;65096;50.998;7.098;2023-04-03T10:17:24;6.20;;;1.45;;
76284;SDS011;65096;50.998;7.098;2023-04-03T10:20:06;4.90;;;1.30;;
76284;SDS011;65096;50.998;7.098;2023-04-03T10:22:46;4.00;;;1.17;;
76284;SDS011;65096;50.998;7.098;2023-04-03T10:25:24;3.22;;;1.10;;
76284;SDS011;65096;50.998;7.098;2023-04-03T10:28:00;3.03;;;1.10;;
76284;SDS011;65096;50.998;7.098;2023-04-03T10:30:36;4.50;;;1.10;;
76284;SDS011;65096;50.998;7.098;2023-04-03T10:33:20;3.70;;;1.10;;
76284;SDS011;65096;50.998;7.098;2023-04-03T10:36:16;4.70;;;1.40;;
76284;SDS011;65096;50.998;7.098;2023-04-03T10:38:51;3.13;;;1.08;;
76284;SDS011;65096;50.998;7.098;2023-04-03T10:41:25;4.10;;;1.20;;
76284;SDS011;65096;50.998;7.098;2023-04-03T10:44:03;2.80;;;1.33;;
76284;SDS011;65096;50.998;7.098;2023-04-03T10:46:39;4.03;;;1.48;;
76284;SDS011;65096;50.998;7.098;2023-04-03T10:49:13;3.13;;;1.08;;
76284;SDS011;65096;50.998;7.098;2023-04-03T10:51:50;3.25;;;0.98;;
76284;SDS011;65096;50.998;7.098;2023-04-03T10:54:26;5.00;;;1.58;;
76284;SDS011;65096;50.998;7.098;2023-04-03T10:56:57;3.53;;;1.00;;
76284;SDS011;65096;50.998;7.098;2023-04-03T10:59:28;4.95;;;1.17;;
76284;SDS011;65096;50.998;7.098;2023-04-03T11:02:00;2.72;;;1.08;;
76284;SDS011;65096;50.998;7.098;2023-04-03T11:04:31;3.53;;;1.20;;
76284;SDS011;65096;50.998;7.098;2023-04-03T11:07:03;2.85;;;1.02;;
76284;SDS011;65096;50.998;7.098;2023-04-03T11:09:37;5.18;;;1.38;;
76284;SDS011;65096;50.998;7.098;2023-04-03T11:12:09;3.88;;;1.00;;
76284;SDS011;65096;50.998;7.098;2023-04-03T11:14:39;5.35;;;1.30;;
76284;SDS011;65096;50.998;7.098;2023-04-03T11:17:14;2.15;;;1.00;;
76284;SDS011;65096;50.998;7.098;2023-04-03T11:19:52;4.53;;;1.48;;
76284;SDS011;65096;50.998;7.098;2023-04-03T11:22:27;2.35;;;0.93;;
76284;SDS011;65096;50.998;7.098;2023-04-03T11:24:57;2.92;;;1.00;;
76284;SDS011;65096;50.998;7.098;2023-04-03T11:27:30;2.05;;;1.00;;
76284;SDS011;65096;50.998;7.098;2023-04-03T11:30:06;2.45;;;0.90;;
76284;SDS011;65096;50.998;7.098;2023-04-03T11:32:48;1.27;;;0.75;;
76284;SDS011;65096;50.998;7.098;2023-04-03T11:35:29;2.72;;;0.98;;
76284;SDS011;65096;50.998;7.098;2023-04-03T11:37:57;3.65;;;1.70;;
76284;SDS011;65096;50.998;7.098;2023-04-03T11:40:26;3.70;;;0.90;;
76284;SDS011;65096;50.998;7.098;2023-04-03T11:43:02;2.58;;;1.00;;
76284;SDS011;65096;50.998;7.098;2023-04-03T11:45:36;3.25;;;1.10;;
76284;SDS011;65096;50.998;7.098;2023-04-03T11:48:06;3.65;;;1.00;;
76284;SDS011;65096;50.998;7.098;2023-04-03T11:50:53;3.15;;;1.05;;
76284;SDS011;65096;50.998;7.098;2023-04-03T11:53:30;3.13;;;0.88;;
76284;SDS011;65096;50.998;7.098;2023-04-03T11:56:00;2.65;;;1.10;;
76284;SDS011;65096;50.998;7.098;2023-04-03T11:58:29;2.83;;;1.05;;
76284;SDS011;65096;50.998;7.098;2023-04-03T12:01:01;3.75;;;1.00;;
76284;SDS011;65096;50.998;7.098;2023-04-03T12:12:28;1.80;;;0.80;;
76284;SDS011;65096;50.998;7.098;2023-04-03T12:17:51;2.45;;;1.00;;
76284;SDS011;65096;50.998;7.098;2023-04-03T12:23:27;1.95;;;0.90;;
76284;SDS011;65096;50.998;7.098;2023-04-03T12:26:06;2.40;;;1.10;;
76284;SDS011;65096;50.998;7.098;2023-04-03T12:28:47;2.10;;;1.00;;
76284;SDS011;65096;50.998;7.098;2023-04-03T12:31:14;1.63;;;0.90;;
76284;SDS011;65096;50.998;7.098;2023-04-03T12:33:52;2.17;;;0.95;;
76284;SDS011;65096;50.998;7.098;2023-04-03T12:36:33;2.60;;;1.10;;
76284;SDS011;65096;50.998;7.098;2023-04-03T12:39:20;1.85;;;0.90;;
76284;SDS011;65096;50.998;7.098;2023-04-03T12:42:03;2.60;;;1.08;;
76284;SDS011;65096;50.998;7.098;2023-04-03T12:44:44;3.90;;;1.13;;
76284;SDS011;65096;50.998;7.098;2023-04-03T12:47:27;2.42;;;0.98;;
76284;SDS011;65096;50.998;7.098;2023-04-03T12:49:57;2.05;;;1.10;;
76284;SDS011;65096;50.998;7.098;2023-04-03T12:52:31;3.85;;;1.20;;
76284;SDS011;65096;50.998;7.098;2023-04-03T12:55:04;2.58;;;0.90;;
76284;SDS011;65096;50.998;7.098;2023-04-03T12:57:35;3.05;;;1.30;;
76284;SDS011;65096;50.998;7.098;2023-04-03T13:02:48;1.95;;;1.05;;
76284;SDS011;65096;50.998;7.098;2023-04-03T13:05:16;3.80;;;1.08;;
76284;SDS011;65096;50.998;7.098;2023-04-03T13:07:47;2.33;;;1.02;;
76284;SDS011;65096;50.998;7.098;2023-04-03T13:10:18;5.88;;;1.30;;
76284;SDS011;65096;50.998;7.098;2023-04-03T13:12:46;3.50;;;1.35;;
76284;SDS011;65096;50.998;7.098;2023-04-03T13:15:15;5.25;;;1.77;;
76284;SDS011;65096;50.998;7.098;2023-04-03T13:17:44;5.07;;;2.10;;
76284;SDS011;65096;50.998;7.098;2023-04-03T13:20:15;4.13;;;1.98;;
76284;SDS011;65096;50.998;7.098;2023-04-03T13:22:48;3.60;;;1.52;;
76284;SDS011;65096;50.998;7.098;2023-04-03T13:25:28;3.08;;;1.10;;
76284;SDS011;65096;50.998;7.098;2023-04-03T13:27:59;3.83;;;1.30;;
76284;SDS011;65096;50.998;7.098;2023-04-03T13:30:29;3.58;;;1.20;;
76284;SDS011;65096;50.998;7.098;2023-04-03T13:32:58;3.95;;;1.70;;
76284;SDS011;65096;50.998;7.098;2023-04-03T13:35:29;3.67;;;1.48;;
76284;SDS011;65096;50.998;7.098;2023-04-03T13:37:59;3.28;;;1.23;;
76284;SDS011;65096;50.998;7.098;2023-04-03T13:40:30;2.67;;;1.02;;
76284;SDS011;65096;50.998;7.098;2023-04-03T13:43:00;3.80;;;1.40;;
76284;SDS011;65096;50.998;7.098;2023-04-03T13:45:29;5.18;;;1.45;;
76284;SDS011;65096;50.998;7.098;2023-04-03T13:48:08;3.25;;;1.20;;
76284;SDS011;65096;50.998;7.098;2023-04-03T13:50:53;2.50;;;1.20;;
76284;SDS011;65096;50.998;7.098;2023-04-03T13:53:23;2.95;;;1.30;;
76284;SDS011;65096;50.998;7.098;2023-04-03T13:55:54;4.30;;;1.40;;
76284;SDS011;65096;50.998;7.098;2023-04-03T13:58:23;3.95;;;1.30;;
76284;SDS011;65096;50.998;7.098;2023-04-03T14:00:51;4.85;;;1.50;;
76284;SDS011;65096;50.998;7.098;2023-04-03T14:03:20;3.63;;;1.67;;
76284;SDS011;65096;50.998;7.098;2023-04-03T14:05:48;3.22;;;1.17;;
76284;SDS011;65096;50.998;7.098;2023-04-03T14:08:15;4.25;;;1.30;;
76284;SDS011;65096;50.998;7.098;2023-04-03T14:10:45;4.18;;;1.58;;
76284;SDS011;65096;50.998;7.098;2023-04-03T14:13:17;4.18;;;1.55;;
76284;SDS011;65096;50.998;7.098;2023-04-03T14:15:47;3.95;;;1.40;;
76284;SDS011;65096;50.998;7.098;2023-04-03T14:18:16;4.45;;;1.30;;
76284;SDS011;65096;50.998;7.098;2023-04-03T14:20:46;3.50;;;1.20;;
76284;SDS011;65096;50.998;7.098;2023-04-03T14:23:14;3.75;;;1.48;;
76284;SDS011;65096;50.998;7.098;2023-04-03T14:25:41;2.92;;;1.20;;
76284;SDS011;65096;50.998;7.098;2023-04-03T14:28:13;3.97;;;1.58;;
76284;SDS011;65096;50.998;7.098;2023-04-03T14:30:43;5.05;;;1.27;;
76284;SDS011;65096;50.998;7.098;2023-04-03T14:33:12;3.67;;;1.20;;
76284;SDS011;65096;50.998;7.098;2023-04-03T14:35:40;4.40;;;1.40;;
76284;SDS011;65096;50.998;7.098;2023-04-03T14:38:12;5.35;;;1.48;;
76284;SDS011;65096;50.998;7.098;2023-04-03T14:40:48;3.92;;;1.33;;
76284;SDS011;65096;50.998;7.098;2023-04-03T14:43:14;4.40;;;1.25;;
76284;SDS011;65096;50.998;7.098;2023-04-03T14:45:44;5.40;;;1.27;;
76284;SDS011;65096;50.998;7.098;2023-04-03T14:48:11;5.07;;;1.50;;
76284;SDS011;65096;50.998;7.098;2023-04-03T14:50:44;3.50;;;1.27;;
76284;SDS011;65096;50.998;7.098;2023-04-03T14:53:12;3.78;;;1.42;;
76284;SDS011;65096;50.998;7.098;2023-04-03T14:55:41;4.28;;;1.25;;
76284;SDS011;65096;50.998;7.098;2023-04-03T14:58:12;6.13;;;1.70;;
76284;SDS011;65096;50.998;7.098;2023-04-03T15:00:41;4.10;;;1.40;;
76284;SDS011;65096;50.998;7.098;2023-04-03T15:03:14;4.35;;;1.40;;
76284;SDS011;65096;50.998;7.098;2023-04-03T15:05:42;4.03;;;1.30;;
76284;SDS011;65096;50.998;7.098;2023-04-03T15:08:13;4.63;;;1.50;;
76284;SDS011;65096;50.998;7.098;2023-04-03T15:10:45;4.53;;;1.17;;
76284;SDS011;65096;50.998;7.098;2023-04-03T15:13:12;3.92;;;1.10;;
76284;SDS011;65096;50.998;7.098;2023-04-03T15:15:39;2.63;;;0.98;;
76284;SDS011;65096;50.998;7.098;2023-04-03T15:18:06;4.70;;;1.40;;
76284;SDS011;65096;50.998;7.098;2023-04-03T15:20:38;3.72;;;1.20;;
76284;SDS011;65096;50.998;7.098;2023-04-03T15:23:04;4.38;;;1.40;;
76284;SDS011;65096;50.998;7.098;2023-04-03T15:25:31;4.03;;;1.30;;